Time;durP1;ratioP1;P1;durP2;ratioP2;P2;SDS_P1;SDS_P2;PMS_P1;PMS_P2;Temp;Humidity;BMP_temperature;BMP_pressure;BME280_temperature;BME280_humidity;BME280_pressure;Samples;Min_cycle;Max_cycle;Signal;HPM_P1;HPM_P2
2021/05/12 00:00:11;;;;;;;5.00;2.57;;;16.50;53.40;;;;;;4428553;32;20421;-74
2021/05/12 00:02:39;;;;;;;3.80;2.37;;;16.40;53.20;;;;;;4430515;32;20206;-73
2021/05/12 00:05:09;;;;;;;3.90;2.43;;;16.40;53.30;;;;;;4427024;32;20469;-74
2021/05/12 00:07:36;;;;;;;5.70;2.57;;;16.40;53.70;;;;;;4426878;32;20477;-74
2021/05/12 00:10:06;;;;;;;6.90;2.90;;;16.30;54.10;;;;;;4412786;32;20255;-74
2021/05/12 00:12:34;;;;;;;4.40;2.70;;;16.30;54.00;;;;;;4426326;32;20155;-73
2021/05/12 00:15:04;;;;;;;3.97;2.47;;;16.20;53.80;;;;;;4426264;32;20139;-73
2021/05/12 00:17:33;;;;;;;8.33;2.70;;;16.20;54.10;;;;;;4426499;32;20162;-73
2021/05/12 00:20:02;;;;;;;5.30;2.70;;;16.10;54.30;;;;;;4422868;32;20189;-78
2021/05/12 00:22:34;;;;;;;6.03;2.50;;;16.10;54.80;;;;;;4422631;32;20163;-78
2021/05/12 00:25:04;;;;;;;3.00;2.40;;;16.00;55.10;;;;;;4410427;32;20177;-78
2021/05/12 00:27:31;;;;;;;5.27;2.57;;;15.90;55.10;;;;;;4408697;32;20162;-78
2021/05/12 00:29:58;;;;;;;7.03;2.80;;;15.80;55.40;;;;;;4422608;32;20204;-80
2021/05/12 00:32:25;;;;;;;5.97;2.70;;;15.90;55.60;;;;;;4423387;32;20197;-78
2021/05/12 00:34:52;;;;;;;5.57;2.53;;;15.80;55.90;;;;;;4423279;32;20151;-81
2021/05/12 00:37:18;;;;;;;7.27;2.57;;;15.70;55.50;;;;;;4426602;32;20348;-79
2021/05/12 00:39:45;;;;;;;9.77;2.90;;;15.70;56.20;;;;;;4427284;32;20154;-79
2021/05/12 00:42:12;;;;;;;7.53;3.10;;;15.70;55.90;;;;;;4425915;32;20178;-78
2021/05/12 00:44:39;;;;;;;5.33;2.50;;;15.60;55.70;;;;;;4427437;32;20188;-78
2021/05/12 00:47:06;;;;;;;4.57;2.67;;;15.60;56.00;;;;;;4426140;32;20204;-78
2021/05/12 00:49:34;;;;;;;9.93;2.80;;;15.50;56.10;;;;;;4425902;32;20185;-78
2021/05/12 00:52:02;;;;;;;7.03;2.50;;;15.40;56.30;;;;;;4422822;32;20201;-79
2021/05/12 00:54:31;;;;;;;4.00;2.50;;;15.40;56.70;;;;;;4417521;32;20207;-80
2021/05/12 00:56:59;;;;;;;5.40;2.60;;;15.30;57.00;;;;;;4410755;32;20486;-78
2021/05/12 00:59:32;;;;;;;7.00;2.50;;;15.20;57.20;;;;;;4410467;32;20354;-79
2021/05/12 01:02:00;;;;;;;4.60;2.70;;;15.20;57.40;;;;;;4412361;32;20144;-79
2021/05/12 01:04:27;;;;;;;4.27;2.67;;;15.20;57.20;;;;;;4411641;32;20556;-78
2021/05/12 01:06:53;;;;;;;5.47;2.70;;;15.20;56.90;;;;;;4409979;32;20231;-78
2021/05/12 01:09:21;;;;;;;6.43;2.70;;;15.10;56.90;;;;;;4410513;32;20214;-79
2021/05/12 01:11:48;;;;;;;5.27;2.70;;;15.10;57.10;;;;;;4410543;32;20139;-78
2021/05/12 01:14:16;;;;;;;6.60;2.60;;;15.10;57.40;;;;;;4412042;32;20155;-78
2021/05/12 01:16:43;;;;;;;7.67;2.40;;;15.00;57.50;;;;;;4410269;32;20210;-78
2021/05/12 01:19:10;;;;;;;5.70;2.53;;;15.00;57.70;;;;;;4410355;32;20154;-79
2021/05/12 01:21:37;;;;;;;6.77;2.77;;;15.00;57.60;;;;;;4412121;32;20182;-79
2021/05/12 01:24:05;;;;;;;4.40;2.50;;;14.90;57.60;;;;;;4411756;32;20143;-80
2021/05/12 01:26:32;;;;;;;5.73;2.73;;;14.90;57.70;;;;;;4412458;32;20169;-81
2021/05/12 01:29:00;;;;;;;4.17;2.50;;;14.80;57.70;;;;;;4412941;32;20151;-79
2021/05/12 01:31:40;;;;;;;4.27;2.20;;;14.80;57.90;;;;;;4411591;32;20192;-78
2021/05/12 01:34:12;;;;;;;4.77;2.50;;;14.80;58.20;;;;;;4414221;32;20162;-78
2021/05/12 01:36:40;;;;;;;7.17;2.40;;;14.70;58.40;;;;;;4395019;32;20143;-80
2021/05/12 01:39:08;;;;;;;5.43;2.77;;;14.70;58.20;;;;;;4394873;32;20190;-80
2021/05/12 01:41:35;;;;;;;6.17;2.57;;;14.60;58.50;;;;;;4404045;32;20186;-79
2021/05/12 01:44:05;;;;;;;5.60;2.50;;;14.60;58.40;;;;;;4410072;32;20198;-79
2021/05/12 01:46:32;;;;;;;4.50;2.30;;;14.60;58.70;;;;;;4411579;32;20451;-80
2021/05/12 01:49:01;;;;;;;6.47;2.70;;;14.60;58.90;;;;;;4411497;32;20185;-80
2021/05/12 01:51:29;;;;;;;6.17;2.77;;;14.60;58.90;;;;;;4410170;32;20234;-79
2021/05/12 01:53:55;;;;;;;4.20;2.40;;;14.50;59.00;;;;;;4411232;32;20496;-80
2021/05/12 01:56:22;;;;;;;5.27;2.50;;;14.50;59.40;;;;;;4410111;32;20187;-79
2021/05/12 01:58:49;;;;;;;5.23;2.40;;;14.40;59.70;;;;;;4409307;32;20195;-80
2021/05/12 02:01:16;;;;;;;3.93;2.27;;;14.40;59.50;;;;;;4410807;32;20356;-80
2021/05/12 02:03:43;;;;;;;4.90;2.40;;;14.40;59.50;;;;;;4411264;32;20139;-80
2021/05/12 02:06:10;;;;;;;5.10;2.47;;;14.30;59.60;;;;;;4409802;32;20168;-80
2021/05/12 02:08:37;;;;;;;4.17;2.40;;;14.30;59.50;;;;;;4411285;32;20147;-80
2021/05/12 02:11:05;;;;;;;4.50;2.53;;;14.30;59.60;;;;;;4410201;32;20147;-80
2021/05/12 02:13:34;;;;;;;4.43;2.63;;;14.30;59.90;;;;;;4410251;32;20198;-80
2021/05/12 02:16:04;;;;;;;4.07;2.50;;;14.20;60.10;;;;;;4409675;32;20198;-80
2021/05/12 02:18:31;;;;;;;4.47;2.70;;;14.20;60.20;;;;;;4421130;32;20182;-79
2021/05/12 02:20:58;;;;;;;6.47;2.70;;;14.20;60.00;;;;;;4424965;32;20189;-79
2021/05/12 02:23:26;;;;;;;6.13;2.63;;;14.20;59.90;;;;;;4424730;32;20150;-79
2021/05/12 02:25:56;;;;;;;6.10;2.50;;;14.10;60.50;;;;;;4424887;32;20188;-79
2021/05/12 02:28:23;;;;;;;6.00;2.60;;;14.10;60.40;;;;;;4424489;32;20189;-78
2021/05/12 02:30:50;;;;;;;4.67;2.53;;;14.10;60.40;;;;;;4424889;32;20168;-78
2021/05/12 02:33:18;;;;;;;4.73;2.83;;;14.10;60.30;;;;;;4426711;32;20398;-78
2021/05/12 02:35:46;;;;;;;5.47;2.80;;;14.00;60.30;;;;;;4424670;32;20150;-79
2021/05/12 02:38:13;;;;;;;6.93;2.70;;;14.00;60.80;;;;;;4424636;32;20134;-77
2021/05/12 02:40:40;;;;;;;4.80;2.47;;;13.90;60.80;;;;;;4425321;32;20584;-78
2021/05/12 02:43:07;;;;;;;4.57;2.70;;;13.90;61.10;;;;;;4426280;32;20214;-78
2021/05/12 02:45:34;;;;;;;5.03;2.70;;;13.90;61.20;;;;;;4424482;32;20419;-79
2021/05/12 02:48:03;;;;;;;4.33;2.50;;;13.90;61.00;;;;;;4424226;32;20158;-78
2021/05/12 02:50:36;;;;;;;4.83;2.23;;;13.90;61.20;;;;;;4423841;32;20159;-78
2021/05/12 02:53:05;;;;;;;4.43;2.70;;;13.80;61.50;;;;;;4425876;32;20151;-78
2021/05/12 02:55:32;;;;;;;5.17;2.67;;;13.80;61.30;;;;;;4424414;32;20188;-78
2021/05/12 02:58:00;;;;;;;5.97;2.87;;;13.80;61.50;;;;;;4424909;32;20138;-78
2021/05/12 03:00:29;;;;;;;7.23;2.60;;;13.80;61.30;;;;;;4419886;32;20151;-78
2021/05/12 03:02:57;;;;;;;5.13;2.53;;;13.80;61.50;;;;;;4413536;32;20549;-79
2021/05/12 03:05:25;;;;;;;5.60;2.40;;;13.80;61.80;;;;;;4424369;32;20161;-78
2021/05/12 03:07:52;;;;;;;5.60;2.70;;;13.70;61.90;;;;;;4425620;32;20155;-78
2021/05/12 03:10:22;;;;;;;6.60;2.40;;;13.80;62.00;;;;;;4423807;32;20569;-78
2021/05/12 03:12:50;;;;;;;4.93;2.30;;;13.80;62.10;;;;;;4425969;32;20186;-78
2021/05/12 03:15:20;;;;;;;4.53;2.60;;;13.80;61.90;;;;;;4424253;32;20178;-78
2021/05/12 03:17:55;;;;;;;5.47;2.30;;;13.80;62.00;;;;;;4424695;32;20147;-78
2021/05/12 03:20:24;;;;;;;4.10;2.27;;;13.80;62.10;;;;;;4424243;32;20148;-78
2021/05/12 03:22:52;;;;;;;4.10;2.50;;;13.70;62.00;;;;;;4425748;32;20448;-77
2021/05/12 03:25:19;;;;;;;4.23;2.50;;;13.80;62.40;;;;;;4424828;32;20189;-78
2021/05/12 03:27:46;;;;;;;5.70;2.50;;;13.80;62.30;;;;;;4426003;32;20354;-78
2021/05/12 03:30:26;;;;;;;5.87;2.77;;;13.80;62.30;;;;;;4424138;32;20188;-77
2021/05/12 03:32:54;;;;;;;4.53;2.53;;;13.70;62.20;;;;;;4424174;32;20153;-78
2021/05/12 03:35:20;;;;;;;6.60;2.30;;;13.80;62.10;;;;;;4425258;32;20224;-78
2021/05/12 03:37:48;;;;;;;3.53;2.30;;;13.80;62.30;;;;;;4420743;32;20163;-78
2021/05/12 03:40:16;;;;;;;5.20;2.53;;;13.80;62.00;;;;;;4413996;32;20177;-78
2021/05/12 03:42:43;;;;;;;3.77;2.13;;;13.90;62.10;;;;;;4427954;32;20141;-77
2021/05/12 03:45:11;;;;;;;5.03;2.63;;;13.90;62.40;;;;;;4426966;32;20138;-78
2021/05/12 03:47:38;;;;;;;5.83;2.47;;;13.90;62.90;;;;;;4426920;32;20194;-79
2021/05/12 03:50:10;;;;;;;7.27;2.60;;;13.90;62.80;;;;;;4428309;32;20143;-78
2021/05/12 03:52:37;;;;;;;4.80;2.30;;;14.00;62.50;;;;;;4428186;32;20165;-78
2021/05/12 03:55:07;;;;;;;4.50;2.63;;;14.00;62.40;;;;;;4426800;32;20148;-77
2021/05/12 03:57:35;;;;;;;5.93;2.50;;;14.10;62.50;;;;;;4426765;32;20196;-78
2021/05/12 04:00:04;;;;;;;4.80;2.30;;;14.10;62.50;;;;;;4426891;32;20143;-78
2021/05/12 04:02:31;;;;;;;4.03;2.43;;;14.10;62.50;;;;;;4426585;32;20195;-77
2021/05/12 04:04:58;;;;;;;5.00;2.30;;;14.20;62.30;;;;;;4426657;32;20231;-78
2021/05/12 04:07:25;;;;;;;5.00;2.33;;;14.20;62.10;;;;;;4426528;32;20233;-80
2021/05/12 04:09:52;;;;;;;4.40;2.47;;;14.30;62.00;;;;;;4428035;32;20201;-79
2021/05/12 04:12:19;;;;;;;3.80;2.13;;;14.30;62.20;;;;;;4426004;32;20179;-79
2021/05/12 04:14:46;;;;;;;3.73;2.13;;;14.30;62.10;;;;;;4427945;32;20192;-78
2021/05/12 04:17:13;;;;;;;4.73;2.30;;;14.40;62.40;;;;;;4426505;32;20345;-79
2021/05/12 04:19:40;;;;;;;4.73;2.47;;;14.40;62.30;;;;;;4426491;32;20145;-79
2021/05/12 04:22:07;;;;;;;5.93;2.53;;;14.50;62.40;;;;;;4426163;32;20139;-80
2021/05/12 04:24:34;;;;;;;3.83;2.30;;;14.50;62.30;;;;;;4427870;32;20165;-79
2021/05/12 04:27:01;;;;;;;4.90;2.50;;;14.60;62.20;;;;;;4427738;32;20417;-78
2021/05/12 04:29:28;;;;;;;8.70;3.13;;;14.60;62.10;;;;;;4426410;32;20212;-79
2021/05/12 04:31:55;;;;;;;4.17;2.20;;;14.60;61.40;;;;;;4426360;32;20146;-79
2021/05/12 04:34:22;;;;;;;5.47;2.80;;;14.60;61.80;;;;;;4426638;32;20524;-79
2021/05/12 04:36:49;;;;;;;8.03;2.40;;;14.70;62.00;;;;;;4425615;32;20417;-79
2021/05/12 04:39:17;;;;;;;5.23;2.10;;;14.80;62.30;;;;;;4416592;32;20155;-79
2021/05/12 04:41:44;;;;;;;3.83;2.10;;;14.90;63.00;;;;;;4413184;32;20205;-79
2021/05/12 04:44:11;;;;;;;4.50;2.40;;;14.90;62.40;;;;;;4410692;32;20181;-79
2021/05/12 04:46:39;;;;;;;4.90;2.67;;;15.00;62.00;;;;;;4410964;32;20177;-80
2021/05/12 04:49:07;;;;;;;5.70;2.40;;;15.00;62.20;;;;;;4410648;32;20147;-80
2021/05/12 04:51:35;;;;;;;5.07;2.30;;;15.10;61.80;;;;;;4410321;32;20140;-79
2021/05/12 04:54:04;;;;;;;3.53;2.40;;;15.20;61.50;;;;;;4410749;32;20154;-79
2021/05/12 04:56:32;;;;;;;6.00;2.40;;;15.30;61.60;;;;;;4410712;32;20143;-79
2021/05/12 04:59:00;;;;;;;7.93;2.70;;;15.40;61.20;;;;;;4410564;32;20226;-78
2021/05/12 05:01:27;;;;;;;6.50;2.37;;;15.50;60.10;;;;;;4409899;32;20439;-79
2021/05/12 05:03:55;;;;;;;6.97;2.60;;;15.50;60.10;;;;;;4411638;32;20142;-78
2021/05/12 05:06:22;;;;;;;6.27;2.53;;;15.60;60.10;;;;;;4412006;32;20181;-78
2021/05/12 05:08:49;;;;;;;7.13;2.90;;;15.80;59.90;;;;;;4410762;32;20426;-78
2021/05/12 05:11:16;;;;;;;7.30;2.60;;;16.00;59.50;;;;;;4410439;32;20154;-79
2021/05/12 05:13:42;;;;;;;5.73;2.47;;;16.10;59.30;;;;;;4410901;32;20189;-80
2021/05/12 05:16:10;;;;;;;7.50;2.30;;;16.10;59.70;;;;;;4415280;32;20191;-78
2021/05/12 05:18:37;;;;;;;6.47;2.43;;;16.20;59.60;;;;;;4415529;32;20155;-78
2021/05/12 05:21:06;;;;;;;6.13;2.50;;;16.20;59.00;;;;;;4410759;32;20186;-79
2021/05/12 05:23:35;;;;;;;6.30;2.70;;;16.30;59.90;;;;;;4409701;32;20150;-79
2021/05/12 05:26:02;;;;;;;5.00;2.50;;;16.30;59.40;;;;;;4411522;32;20143;-78
2021/05/12 05:28:31;;;;;;;6.17;2.57;;;16.40;59.40;;;;;;4409874;32;20508;-79
2021/05/12 05:30:58;;;;;;;5.43;2.33;;;16.50;59.00;;;;;;4410030;32;20151;-79
2021/05/12 05:33:25;;;;;;;5.27;2.43;;;16.50;59.10;;;;;;4411612;32;20206;-78
2021/05/12 05:35:52;;;;;;;5.53;2.37;;;16.70;58.80;;;;;;4410446;32;20192;-77
2021/05/12 05:38:19;;;;;;;7.60;2.67;;;16.80;58.50;;;;;;4411225;32;20192;-80
2021/05/12 05:40:46;;;;;;;7.23;2.50;;;16.90;58.70;;;;;;4413957;32;20419;-78
2021/05/12 05:43:14;;;;;;;12.97;2.40;;;17.00;58.60;;;;;;4425173;32;20182;-78
2021/05/12 05:45:42;;;;;;;8.20;2.57;;;17.10;57.80;;;;;;4426589;32;20169;-79
2021/05/12 05:48:09;;;;;;;5.20;2.40;;;17.20;58.10;;;;;;4419512;32;20224;-81
2021/05/12 05:50:37;;;;;;;5.70;2.23;;;17.20;57.90;;;;;;4410240;32;20434;-80
2021/05/12 05:53:04;;;;;;;5.40;2.10;;;17.30;57.40;;;;;;4409715;32;20166;-81
2021/05/12 05:55:31;;;;;;;6.30;2.40;;;17.40;57.90;;;;;;4410512;32;20170;-81
2021/05/12 05:57:58;;;;;;;5.70;2.33;;;17.50;57.60;;;;;;4409657;32;20197;-79
2021/05/12 06:00:26;;;;;;;7.93;2.40;;;17.60;57.90;;;;;;4409576;32;20160;-78
2021/05/12 06:02:53;;;;;;;9.07;2.73;;;17.70;57.30;;;;;;4408997;32;20162;-79
2021/05/12 06:05:20;;;;;;;7.47;2.30;;;17.70;56.40;;;;;;4411101;32;20183;-81
2021/05/12 06:07:46;;;;;;;5.60;2.47;;;17.80;56.30;;;;;;4408956;32;20215;-81
2021/05/12 06:10:13;;;;;;;8.30;2.23;;;17.90;57.60;;;;;;4409600;32;20174;-83
2021/05/12 06:12:45;;;;;;;6.20;2.27;;;18.10;56.70;;;;;;4410390;32;20185;-87
2021/05/12 06:15:19;;;;;;;7.20;2.17;;;18.20;56.80;;;;;;4409654;32;20162;-79
2021/05/12 06:17:51;;;;;;;6.13;2.33;;;18.30;55.20;;;;;;4409508;32;20168;-81
2021/05/12 06:20:18;;;;;;;5.57;2.10;;;18.50;55.10;;;;;;4410372;32;20410;-79
2021/05/12 06:22:45;;;;;;;4.40;2.10;;;18.50;55.20;;;;;;4409680;32;20174;-81
2021/05/12 06:25:13;;;;;;;6.10;2.03;;;18.60;54.90;;;;;;4418689;32;20497;-80
2021/05/12 06:27:41;;;;;;;3.90;2.13;;;18.70;54.30;;;;;;4409051;32;20395;-81
2021/05/12 06:30:09;;;;;;;15.63;2.37;;;18.80;54.40;;;;;;4408807;32;20406;-80
2021/05/12 06:32:36;;;;;;;5.43;2.20;;;19.00;53.30;;;;;;4409140;32;20143;-80
2021/05/12 06:35:03;;;;;;;6.07;2.13;;;19.10;53.80;;;;;;4408390;32;20277;-78
2021/05/12 06:37:30;;;;;;;7.03;2.33;;;19.20;53.70;;;;;;4408640;32;20179;-78
2021/05/12 06:39:57;;;;;;;14.60;2.23;;;19.30;53.40;;;;;;4410572;32;20147;-78
2021/05/12 06:42:24;;;;;;;8.17;1.87;;;19.40;52.50;;;;;;4423000;32;20166;-79
2021/05/12 06:44:51;;;;;;;4.63;1.90;;;19.50;51.30;;;;;;4424897;32;20139;-81
2021/05/12 06:47:17;;;;;;;8.30;2.27;;;19.60;51.00;;;;;;4423950;32;20204;-79
2021/05/12 06:49:44;;;;;;;6.57;1.97;;;19.70;51.70;;;;;;4424241;32;20222;-80
2021/05/12 06:52:11;;;;;;;5.27;1.90;;;19.80;52.20;;;;;;4424284;32;20180;-80
2021/05/12 06:54:38;;;;;;;4.40;1.83;;;20.00;50.60;;;;;;4425541;32;20433;-75
2021/05/12 06:57:05;;;;;;;4.67;1.90;;;20.00;51.10;;;;;;4424172;32;20146;-76
2021/05/12 06:59:32;;;;;;;5.37;2.00;;;20.20;50.40;;;;;;4425671;32;20195;-82
2021/05/12 07:01:59;;;;;;;6.90;1.90;;;20.30;50.50;;;;;;4423988;32;20165;-81
2021/05/12 07:04:26;;;;;;;4.37;1.60;;;20.30;50.40;;;;;;4424067;32;20187;-75
2021/05/12 07:06:53;;;;;;;4.30;1.70;;;20.50;50.50;;;;;;4424307;32;20147;-79
2021/05/12 07:09:20;;;;;;;3.97;1.70;;;20.60;50.90;;;;;;4424278;32;20186;-81
2021/05/12 07:11:47;;;;;;;5.93;1.80;;;20.60;50.50;;;;;;4422590;32;20204;-80
2021/05/12 07:14:14;;;;;;;4.80;1.70;;;20.60;51.00;;;;;;4419698;32;20163;-82
2021/05/12 07:16:41;;;;;;;7.13;1.80;;;20.70;51.20;;;;;;4412121;32;20207;-80
2021/05/12 07:19:08;;;;;;;6.27;1.90;;;20.80;51.20;;;;;;4411913;32;20188;-80
2021/05/12 07:21:35;;;;;;;4.83;2.00;;;20.90;51.20;;;;;;4413318;32;20185;-81
2021/05/12 07:24:03;;;;;;;5.27;2.03;;;21.00;51.50;;;;;;4413289;32;20415;-79
2021/05/12 07:26:30;;;;;;;7.13;1.97;;;21.10;51.50;;;;;;4412469;32;20523;-89
2021/05/12 07:28:57;;;;;;;5.33;1.77;;;21.10;51.40;;;;;;4398805;32;20166;-81
2021/05/12 07:31:25;;;;;;;3.80;1.70;;;21.20;51.10;;;;;;4411840;32;20495;-82
2021/05/12 07:33:52;;;;;;;3.87;1.70;;;21.30;51.40;;;;;;4411592;32;20181;-82
2021/05/12 07:36:42;;;;;;;5.60;1.73;;;21.40;51.20;;;;;;4410760;32;20143;-83
2021/05/12 07:39:10;;;;;;;5.37;1.70;;;21.40;51.00;;;;;;4380531;32;20255;-80
2021/05/12 07:41:38;;;;;;;4.53;1.80;;;21.40;51.40;;;;;;4419187;32;20223;-81
2021/05/12 07:44:05;;;;;;;6.37;1.80;;;21.40;50.20;;;;;;4425422;32;20135;-80
2021/05/12 07:46:32;;;;;;;6.60;1.67;;;21.50;50.10;;;;;;4427085;32;20138;-81
2021/05/12 07:48:59;;;;;;;5.07;1.77;;;21.50;50.80;;;;;;4426891;32;20154;-79
2021/05/12 07:51:26;;;;;;;5.10;1.60;;;21.60;50.70;;;;;;4427189;32;20142;-79
2021/05/12 07:53:54;;;;;;;4.53;1.80;;;21.60;49.70;;;;;;4428460;32;20165;-79
2021/05/12 07:56:21;;;;;;;6.97;1.80;;;21.70;50.20;;;;;;4426960;32;20182;-83
2021/05/12 07:58:47;;;;;;;6.00;1.90;;;21.80;50.70;;;;;;4428456;32;20166;-82
2021/05/12 08:03:45;;;;;;;5.53;1.87;;;22.00;49.80;;;;;;4428575;32;20204;-79
2021/05/12 08:06:12;;;;;;;5.27;1.80;;;22.00;50.30;;;;;;4426769;32;20174;-79
2021/05/12 08:08:39;;;;;;;4.33;1.70;;;22.10;50.30;;;;;;4426483;32;20570;-79
2021/05/12 08:11:06;;;;;;;6.27;1.60;;;22.30;51.20;;;;;;4427305;32;20180;-78
2021/05/12 08:13:34;;;;;;;3.30;1.87;;;23.20;48.80;;;;;;4426192;32;20151;-79
2021/05/12 08:16:00;;;;;;;2.40;1.70;;;24.10;46.90;;;;;;4426369;32;20184;-81
2021/05/12 08:18:27;;;;;;;6.03;1.95;;;24.70;45.10;;;;;;4426441;32;20165;-79
2021/05/12 08:20:56;;;;;;;9.40;2.10;;;25.20;44.80;;;;;;4427542;32;20207;-80
2021/05/12 08:23:24;;;;;;;4.47;1.90;;;25.80;43.80;;;;;;4426789;32;20166;-81
2021/05/12 08:25:51;;;;;;;4.78;2.08;;;25.90;42.30;;;;;;4426627;32;20165;-81
2021/05/12 08:28:18;;;;;;;5.10;1.90;;;26.00;42.60;;;;;;4426674;32;20147;-79
2021/05/12 08:30:48;;;;;;;4.62;1.80;;;26.20;42.30;;;;;;4426206;32;20207;-81
2021/05/12 08:33:16;;;;;;;4.25;1.98;;;26.60;41.60;;;;;;4427605;32;20433;-80
2021/05/12 08:35:45;;;;;;;4.50;1.90;;;26.80;41.10;;;;;;4426191;32;20143;-81
2021/05/12 08:38:16;;;;;;;4.28;2.08;;;27.10;40.50;;;;;;4426196;32;20193;-81
2021/05/12 08:40:44;;;;;;;6.05;2.05;;;27.10;40.60;;;;;;4426052;32;20190;-80
2021/05/12 08:43:13;;;;;;;7.60;1.98;;;27.20;40.60;;;;;;4425546;32;20245;-80
2021/05/12 08:45:44;;;;;;;5.40;1.77;;;27.50;39.70;;;;;;4427055;32;20155;-81
2021/05/12 08:48:16;;;;;;;3.85;1.75;;;27.50;38.90;;;;;;4426452;32;20182;-80
2021/05/12 08:50:44;;;;;;;6.62;1.80;;;27.10;38.90;;;;;;4426287;32;20165;-80
2021/05/12 08:53:12;;;;;;;4.53;1.70;;;27.10;39.90;;;;;;4425213;32;20569;-81
2021/05/12 08:55:39;;;;;;;4.07;1.83;;;27.00;39.30;;;;;;4425455;32;20403;-80
2021/05/12 08:58:06;;;;;;;3.83;1.45;;;27.10;38.50;;;;;;4425474;32;20159;-80
2021/05/12 09:00:33;;;;;;;5.22;1.70;;;27.10;39.10;;;;;;4427270;32;20154;-80
2021/05/12 09:03:02;;;;;;;7.35;1.62;;;27.30;39.50;;;;;;4425810;32;20233;-81
2021/05/12 09:05:29;;;;;;;2.92;1.60;;;27.40;39.50;;;;;;4427074;32;20468;-80
2021/05/12 09:07:57;;;;;;;4.18;1.60;;;27.60;39.20;;;;;;4426628;32;20514;-80
2021/05/12 09:10:24;;;;;;;8.43;1.60;;;27.60;39.40;;;;;;4425504;32;20139;-80
2021/05/12 09:12:53;;;;;;;3.50;1.60;;;27.50;39.10;;;;;;4425667;32;20190;-80
2021/05/12 09:15:23;;;;;;;4.43;1.52;;;27.70;39.10;;;;;;4425989;32;20161;-81
2021/05/12 09:17:52;;;;;;;4.60;1.60;;;27.80;39.90;;;;;;4425886;32;20204;-81
2021/05/12 09:20:19;;;;;;;3.70;1.58;;;28.00;38.50;;;;;;4425491;32;20207;-81
2021/05/12 09:22:47;;;;;;;2.20;1.30;;;27.80;37.70;;;;;;4427794;32;20143;-81
2021/05/12 09:25:18;;;;;;;3.08;1.60;;;27.90;38.20;;;;;;4430496;32;20188;-80
2021/05/12 09:27:49;;;;;;;2.78;1.30;;;27.90;38.60;;;;;;4431481;32;20155;-78
2021/05/12 09:30:22;;;;;;;2.30;1.20;;;28.20;38.10;;;;;;4431286;32;20142;-79
2021/05/12 09:32:49;;;;;;;5.30;1.52;;;28.10;37.30;;;;;;4428294;32;20193;-80
2021/05/12 09:35:22;;;;;;;6.18;1.45;;;28.20;37.40;;;;;;4426808;32;20365;-81
2021/05/12 09:37:49;;;;;;;4.07;1.65;;;28.20;37.50;;;;;;4413313;32;20432;-81
2021/05/12 09:40:19;;;;;;;4.80;1.42;;;28.50;37.80;;;;;;4424909;32;20195;-81
2021/05/12 09:42:59;;;;;;;4.90;1.85;;;28.60;37.20;;;;;;4426596;32;20198;-81
2021/05/12 09:45:28;;;;;;;3.90;1.73;;;28.60;37.80;;;;;;4425155;32;20464;-82
2021/05/12 09:48:00;;;;;;;6.75;1.77;;;28.60;37.30;;;;;;4426100;32;20197;-84
2021/05/12 09:50:36;;;;;;;4.37;1.60;;;28.60;37.00;;;;;;4425040;32;20147;-81
2021/05/12 09:53:05;;;;;;;3.72;1.48;;;28.70;38.40;;;;;;4426519;32;20411;-81
2021/05/12 09:55:37;;;;;;;3.80;1.40;;;29.00;37.50;;;;;;4425143;32;20151;-82
2021/05/12 09:58:04;;;;;;;7.57;1.50;;;29.30;37.40;;;;;;4424995;32;20407;-80
2021/05/12 10:00:34;;;;;;;6.37;1.30;;;29.20;36.30;;;;;;4426447;32;20199;-80
2021/05/12 10:03:04;;;;;;;6.35;1.70;;;29.20;37.70;;;;;;4424790;32;20569;-81
2021/05/12 10:05:58;;;;;;;6.93;1.80;;;29.20;36.40;;;;;;4426145;32;20200;-81
2021/05/12 10:08:33;;;;;;;6.70;1.62;;;29.30;36.50;;;;;;4424809;32;20162;-81
2021/05/12 10:11:08;;;;;;;4.32;1.70;;;29.70;36.80;;;;;;4426000;32;20206;-82
2021/05/12 10:13:36;;;;;;;5.00;1.50;;;29.80;35.70;;;;;;4424724;32;20214;-81
2021/05/12 10:16:08;;;;;;;7.28;1.60;;;29.90;36.30;;;;;;4425734;32;20139;-82
2021/05/12 10:18:35;;;;;;;4.00;1.75;;;30.40;37.00;;;;;;4425058;32;20166;-80
2021/05/12 10:21:05;;;;;;;6.35;1.70;;;31.10;35.80;;;;;;4426223;32;20196;-81
2021/05/12 10:23:32;;;;;;;1.95;1.30;;;31.10;34.10;;;;;;4424840;32;20204;-82
2021/05/12 10:25:59;;;;;;;3.55;1.50;;;31.30;34.60;;;;;;4424091;32;20437;-83
2021/05/12 10:28:27;;;;;;;5.47;1.50;;;31.70;33.70;;;;;;4424321;32;20359;-81
2021/05/12 10:30:55;;;;;;;3.55;1.45;;;32.00;33.50;;;;;;4424489;32;20185;-82
2021/05/12 10:33:48;;;;;;;5.18;1.65;;;32.10;33.40;;;;;;4424677;32;20155;-82
2021/05/12 10:36:24;;;;;;;7.00;1.65;;;31.30;33.80;;;;;;4424779;32;20218;-81
2021/05/12 10:38:52;;;;;;;7.80;1.80;;;31.60;34.80;;;;;;4425773;32;20529;-81
2021/05/12 10:41:47;;;;;;;7.60;1.58;;;31.50;34.00;;;;;;4424087;32;20158;-82
2021/05/12 10:44:35;;;;;;;5.62;1.60;;;32.00;33.30;;;;;;4425337;32;20155;-81
2021/05/12 10:47:17;;;;;;;6.68;1.60;;;32.10;32.80;;;;;;4425965;32;20356;-82
2021/05/12 10:49:51;;;;;;;3.45;1.30;;;32.30;33.50;;;;;;4425714;32;20200;-82
2021/05/12 10:52:19;;;;;;;5.97;1.70;;;32.50;32.50;;;;;;4424548;32;20437;-82
2021/05/12 10:54:50;;;;;;;4.55;1.50;;;32.80;32.20;;;;;;4423573;32;20202;-82
2021/05/12 10:57:45;;;;;;;4.47;1.55;;;32.40;31.70;;;;;;4419255;32;20176;-82
2021/05/12 11:00:18;;;;;;;2.95;1.40;;;32.40;32.40;;;;;;4409451;32;20174;-84
2021/05/12 11:02:51;;;;;;;3.50;1.67;;;32.80;32.10;;;;;;4411028;32;20201;-82
2021/05/12 11:05:19;;;;;;;4.65;1.40;;;32.50;32.40;;;;;;4418238;32;20484;-82
2021/05/12 11:08:15;;;;;;;3.80;1.55;;;32.60;32.50;;;;;;4424082;32;20493;-83
2021/05/12 11:11:05;;;;;;;4.97;1.67;;;33.10;31.70;;;;;;4416672;32;20658;-82
2021/05/12 11:13:34;;;;;;;2.87;1.60;;;33.20;31.70;;;;;;4424047;32;20178;-82
2021/05/12 11:16:03;;;;;;;4.15;1.60;;;33.10;31.20;;;;;;4424656;32;20265;-82
2021/05/12 11:18:51;;;;;;;8.27;1.83;;;33.20;32.30;;;;;;4423450;32;20155;-82
2021/05/12 11:21:19;;;;;;;6.22;1.52;;;33.30;31.60;;;;;;4425573;32;20192;-82
2021/05/12 11:24:06;;;;;;;3.10;1.45;;;32.90;31.20;;;;;;4425572;32;20147;-81
2021/05/12 11:27:05;;;;;;;4.95;1.65;;;33.30;31.10;;;;;;4424527;32;20146;-82
2021/05/12 11:32:08;;;;;;;5.15;1.50;;;33.50;31.10;;;;;;4424075;32;20147;-82
2021/05/12 11:34:37;;;;;;;4.20;1.80;;;33.30;30.80;;;;;;4424019;32;20134;-81
2021/05/12 11:37:09;;;;;;;7.40;1.90;;;33.40;30.20;;;;;;4422698;32;20193;-78
2021/05/12 11:39:54;;;;;;;2.75;1.60;;;33.30;30.30;;;;;;4425195;32;20249;-79
2021/05/12 11:42:29;;;;;;;2.58;1.50;;;33.10;31.00;;;;;;4423558;32;20580;-79
2021/05/12 11:45:16;;;;;;;4.45;1.80;;;33.30;31.10;;;;;;4425129;32;20150;-82
2021/05/12 11:47:57;;;;;;;4.55;1.73;;;33.60;30.50;;;;;;4424268;32;20151;-82
2021/05/12 11:50:30;;;;;;;4.28;1.73;;;33.80;30.00;;;;;;4424035;32;20151;-83
2021/05/12 11:52:58;;;;;;;6.28;1.70;;;33.70;29.80;;;;;;4425477;32;20173;-82
2021/05/12 11:55:27;;;;;;;2.58;1.70;;;33.70;30.00;;;;;;4424158;32;20143;-81
2021/05/12 11:57:54;;;;;;;4.28;1.67;;;33.90;29.90;;;;;;4409569;32;20238;-83
2021/05/12 12:00:28;;;;;;;4.20;1.77;;;33.10;29.80;;;;;;4424006;32;20178;-81
2021/05/12 12:03:01;;;;;;;9.27;1.92;;;33.80;30.30;;;;;;4426332;32;20166;-81
2021/05/12 12:05:52;;;;;;;7.22;1.80;;;33.60;29.80;;;;;;4428205;32;20190;-82
2021/05/12 12:08:18;;;;;;;3.70;1.75;;;33.50;29.20;;;;;;4426341;32;20501;-81
2021/05/12 12:10:45;;;;;;;3.95;1.80;;;33.50;29.50;;;;;;4427259;32;20171;-79
2021/05/12 12:13:17;;;;;;;8.55;2.10;;;33.90;30.20;;;;;;4426434;32;20253;-82
2021/05/12 12:15:46;;;;;;;5.60;1.80;;;34.40;30.00;;;;;;4426540;32;20520;-82
2021/05/12 12:18:28;;;;;;;5.70;1.87;;;34.70;29.20;;;;;;4425809;32;20462;-82
2021/05/12 12:20:55;;;;;;;9.23;2.20;;;34.10;28.80;;;;;;4403132;32;20174;-83
2021/05/12 12:23:27;;;;;;;5.00;2.12;;;34.10;29.40;;;;;;4426853;32;20488;-82
2021/05/12 12:26:08;;;;;;;6.10;2.12;;;33.90;29.20;;;;;;4427847;32;20194;-81
2021/05/12 12:28:35;;;;;;;5.40;1.83;;;33.90;29.70;;;;;;4426333;32;20229;-81
2021/05/12 12:31:02;;;;;;;4.35;1.83;;;34.20;29.30;;;;;;4426249;32;20419;-77
2021/05/12 12:33:29;;;;;;;4.70;1.70;;;33.90;29.30;;;;;;4425671;32;20200;-78
2021/05/12 12:36:11;;;;;;;5.53;2.22;;;33.90;29.40;;;;;;4427240;32;20486;-77
2021/05/12 12:38:51;;;;;;;4.43;2.00;;;33.80;29.30;;;;;;4426469;32;20166;-78
2021/05/12 12:41:20;;;;;;;5.82;2.10;;;34.10;29.60;;;;;;4426925;32;20188;-78
2021/05/12 12:43:50;;;;;;;5.75;2.17;;;34.10;29.50;;;;;;4427559;32;20173;-78
2021/05/12 12:46:25;;;;;;;5.62;2.10;;;34.20;28.70;;;;;;4426103;32;20200;-80
2021/05/12 12:48:53;;;;;;;5.72;1.95;;;34.30;29.10;;;;;;4427352;32;20182;-78
2021/05/12 12:51:40;;;;;;;6.53;2.12;;;34.30;29.30;;;;;;4426607;32;20192;-79
2021/05/12 12:54:07;;;;;;;5.10;2.10;;;34.40;29.00;;;;;;4427172;32;20457;-77
2021/05/12 12:56:34;;;;;;;6.40;2.10;;;34.80;29.00;;;;;;4425945;32;20494;-79
2021/05/12 12:59:11;;;;;;;6.12;2.08;;;35.00;28.20;;;;;;4426097;32;20139;-78
2021/05/12 13:01:39;;;;;;;5.70;2.30;;;34.30;28.70;;;;;;4427401;32;20146;-79